Indian Lake, NY (12842)

5:38 AM EDT on April 30, 2017 (GMT -0400)
Johnson Hill | | Change Station

Elev 1719 ft 43.76 °N, 74.27 °W | Updated 6 seconds ago

Partly Cloudy
Partly Cloudy
29.5 °F
Feels Like 30 °F
N
0.0
Wind Variable Wind from NNW

Today
High -- | Low -- °F
--% Chance of Precip.
Yesterday
High -- | Low -- °F
Precip. -- in
Pressure 30.26 in
Visibility 10.0 miles
Clouds Mostly Cloudy 11000 ft
Windchill 30 °F
Dew Point 26 °F
Humidity 86%
Rainfall 0.00 in
Snow Depth Not available.
5:50 AM 7:58 PM
Waxing Crescent, 21% visible
METAR KSLK 300851Z AUTO 02003KT 10SM BKN110 M02/M04 A3023 RMK AO2 SLP246 T10221039 58002 TSNO
Pressure 30.26 in
Visibility 10.0 miles
Clouds Mostly Cloudy 11000 ft
Windchill 30 °F
Dew Point 26 °F
Humidity 86%
Rainfall 0.00 in
Snow Depth Not available.
5:50 AM 7:58 PM
Waxing Crescent, 21% visible
METAR KSLK 300851Z AUTO 02003KT 10SM BKN110 M02/M04 A3023 RMK AO2 SLP246 T10221039 58002 TSNO

Get Severe Weather Alerts

Thanks for signing up!

Be on the lookout for a verification email in your inbox.

You'll start receiving the daily forecast at 8 AM.

×

10-Day Weather Forecast

Almanac

Astronomy

Apr. 30, 2017 Rise Set
Actual Time
Civil Twilight
Nautical Twilight
Astronomical Twilight
Moon
Length of Visible Light
Length of Day
Tomorrow will be .
, % of the Moon is Illuminated

Today's Extremes

State Highs State Lows

Community

WunderPhotos

WunderBlog® & News

Nearby

Air Quality

  Air Quality AQ Index Pollutant
Not available.

Snow Depth

Station Depth Elevation

Earthquake Activity

City Distance Mag. Time & Date
Minimum magnitude displayed is 2.5.

Coastal Water Temperatures

Place Temperature

Stations

Nearby Weather Stations

Station Location Temp. Windchill Dew Point Humidity Wind Precip. Elev Updated Type
                   

Watches & Warnings

There are currently no watches in effect.